sensor_id;sensor_type;location;lat;lon;timestamp;P1;durP1;ratioP1;P2;durP2;ratioP2
27847;SDS011;15212;48.830;8.730;2023-11-22T00:02:00;134.10;;;20.10;;
27847;SDS011;15212;48.830;8.730;2023-11-22T00:04:29;216.73;;;18.23;;
27847;SDS011;15212;48.830;8.730;2023-11-22T00:06:57;45.17;;;15.10;;
27847;SDS011;15212;48.830;8.730;2023-11-22T00:09:25;25.65;;;13.40;;
27847;SDS011;15212;48.830;8.730;2023-11-22T00:11:54;226.15;;;18.60;;
27847;SDS011;15212;48.830;8.730;2023-11-22T00:14:22;51.63;;;15.13;;
27847;SDS011;15212;48.830;8.730;2023-11-22T00:16:50;20.23;;;10.82;;
27847;SDS011;15212;48.830;8.730;2023-11-22T00:19:19;19.85;;;9.95;;
27847;SDS011;15212;48.830;8.730;2023-11-22T00:21:49;15.68;;;8.70;;
27847;SDS011;15212;48.830;8.730;2023-11-22T00:24:17;9.80;;;6.20;;
27847;SDS011;15212;48.830;8.730;2023-11-22T00:26:46;10.32;;;5.03;;
27847;SDS011;15212;48.830;8.730;2023-11-22T00:29:15;10.65;;;5.05;;
27847;SDS011;15212;48.830;8.730;2023-11-22T00:31:43;6.25;;;4.20;;
27847;SDS011;15212;48.830;8.730;2023-11-22T00:34:12;6.22;;;3.98;;
27847;SDS011;15212;48.830;8.730;2023-11-22T00:36:40;6.33;;;3.80;;
27847;SDS011;15212;48.830;8.730;2023-11-22T00:39:08;7.05;;;3.98;;
27847;SDS011;15212;48.830;8.730;2023-11-22T00:41:39;5.08;;;3.62;;
27847;SDS011;15212;48.830;8.730;2023-11-22T00:44:07;8.73;;;3.65;;
27847;SDS011;15212;48.830;8.730;2023-11-22T00:46:36;7.12;;;4.95;;
27847;SDS011;15212;48.830;8.730;2023-11-22T00:49:05;6.62;;;4.60;;
27847;SDS011;15212;48.830;8.730;2023-11-22T00:51:34;6.65;;;5.20;;
27847;SDS011;15212;48.830;8.730;2023-11-22T00:54:02;8.50;;;5.28;;
27847;SDS011;15212;48.830;8.730;2023-11-22T00:56:31;7.47;;;4.40;;
27847;SDS011;15212;48.830;8.730;2023-11-22T00:58:59;7.10;;;4.65;;
27847;SDS011;15212;48.830;8.730;2023-11-22T01:01:29;9.53;;;4.97;;
27847;SDS011;15212;48.830;8.730;2023-11-22T01:03:58;6.90;;;4.40;;
27847;SDS011;15212;48.830;8.730;2023-11-22T01:06:26;6.90;;;3.95;;
27847;SDS011;15212;48.830;8.730;2023-11-22T01:08:55;6.00;;;4.30;;
27847;SDS011;15212;48.830;8.730;2023-11-22T01:11:23;7.53;;;4.35;;
27847;SDS011;15212;48.830;8.730;2023-11-22T01:13:52;6.25;;;4.65;;
27847;SDS011;15212;48.830;8.730;2023-11-22T01:16:20;7.58;;;4.72;;
27847;SDS011;15212;48.830;8.730;2023-11-22T01:18:48;9.20;;;5.83;;
27847;SDS011;15212;48.830;8.730;2023-11-22T01:21:18;12.35;;;5.67;;
27847;SDS011;15212;48.830;8.730;2023-11-22T01:23:47;10.95;;;6.62;;
27847;SDS011;15212;48.830;8.730;2023-11-22T01:26:15;9.63;;;6.33;;
27847;SDS011;15212;48.830;8.730;2023-11-22T01:28:44;11.60;;;6.35;;
27847;SDS011;15212;48.830;8.730;2023-11-22T01:31:12;10.45;;;6.70;;
27847;SDS011;15212;48.830;8.730;2023-11-22T01:33:41;9.58;;;6.50;;
27847;SDS011;15212;48.830;8.730;2023-11-22T01:36:10;11.57;;;6.83;;
27847;SDS011;15212;48.830;8.730;2023-11-22T01:38:39;12.20;;;6.95;;
27847;SDS011;15212;48.830;8.730;2023-11-22T01:41:09;10.35;;;7.03;;
27847;SDS011;15212;48.830;8.730;2023-11-22T01:43:39;11.28;;;7.35;;
27847;SDS011;15212;48.830;8.730;2023-11-22T01:46:08;10.90;;;7.17;;
27847;SDS011;15212;48.830;8.730;2023-11-22T01:48:40;11.43;;;7.08;;
27847;SDS011;15212;48.830;8.730;2023-11-22T01:51:08;12.33;;;7.60;;
27847;SDS011;15212;48.830;8.730;2023-11-22T01:53:37;11.50;;;7.45;;
27847;SDS011;15212;48.830;8.730;2023-11-22T01:56:05;11.80;;;6.75;;
27847;SDS011;15212;48.830;8.730;2023-11-22T01:58:35;11.90;;;7.15;;
27847;SDS011;15212;48.830;8.730;2023-11-22T02:01:03;10.53;;;6.42;;
27847;SDS011;15212;48.830;8.730;2023-11-22T02:03:32;9.93;;;6.70;;
27847;SDS011;15212;48.830;8.730;2023-11-22T02:06:01;10.80;;;6.08;;
27847;SDS011;15212;48.830;8.730;2023-11-22T02:08:31;7.55;;;5.12;;
27847;SDS011;15212;48.830;8.730;2023-11-22T02:10:59;9.55;;;5.00;;
27847;SDS011;15212;48.830;8.730;2023-11-22T02:13:29;9.03;;;5.28;;
27847;SDS011;15212;48.830;8.730;2023-11-22T02:15:58;8.33;;;5.47;;
27847;SDS011;15212;48.830;8.730;2023-11-22T02:18:27;9.30;;;6.25;;
27847;SDS011;15212;48.830;8.730;2023-11-22T02:20:56;9.05;;;6.03;;
27847;SDS011;15212;48.830;8.730;2023-11-22T02:23:25;11.48;;;6.30;;
27847;SDS011;15212;48.830;8.730;2023-11-22T02:25:54;11.05;;;6.80;;
27847;SDS011;15212;48.830;8.730;2023-11-22T02:28:22;12.90;;;6.45;;
27847;SDS011;15212;48.830;8.730;2023-11-22T02:30:51;9.28;;;6.28;;
27847;SDS011;15212;48.830;8.730;2023-11-22T02:33:20;10.95;;;6.78;;
27847;SDS011;15212;48.830;8.730;2023-11-22T02:35:49;14.45;;;7.22;;
27847;SDS011;15212;48.830;8.730;2023-11-22T02:38:17;10.78;;;6.80;;
27847;SDS011;15212;48.830;8.730;2023-11-22T02:40:46;12.37;;;7.20;;
27847;SDS011;15212;48.830;8.730;2023-11-22T02:43:16;12.95;;;7.10;;
27847;SDS011;15212;48.830;8.730;2023-11-22T02:45:44;12.70;;;7.17;;
27847;SDS011;15212;48.830;8.730;2023-11-22T02:48:13;13.85;;;6.92;;
27847;SDS011;15212;48.830;8.730;2023-11-22T02:50:41;13.58;;;7.12;;
27847;SDS011;15212;48.830;8.730;2023-11-22T02:53:10;10.40;;;6.58;;
27847;SDS011;15212;48.830;8.730;2023-11-22T02:55:38;11.55;;;7.40;;
27847;SDS011;15212;48.830;8.730;2023-11-22T02:58:07;14.13;;;8.28;;
27847;SDS011;15212;48.830;8.730;2023-11-22T03:00:35;12.35;;;8.00;;
27847;SDS011;15212;48.830;8.730;2023-11-22T03:03:04;15.68;;;7.55;;
27847;SDS011;15212;48.830;8.730;2023-11-22T03:05:34;12.47;;;7.75;;
27847;SDS011;15212;48.830;8.730;2023-11-22T03:08:06;13.32;;;7.58;;
27847;SDS011;15212;48.830;8.730;2023-11-22T03:10:35;12.95;;;7.67;;
27847;SDS011;15212;48.830;8.730;2023-11-22T03:13:04;12.07;;;7.15;;
27847;SDS011;15212;48.830;8.730;2023-11-22T03:15:34;13.35;;;7.10;;
27847;SDS011;15212;48.830;8.730;2023-11-22T03:18:03;11.60;;;6.70;;
27847;SDS011;15212;48.830;8.730;2023-11-22T03:20:32;11.33;;;7.05;;
27847;SDS011;15212;48.830;8.730;2023-11-22T03:23:03;11.95;;;7.72;;
27847;SDS011;15212;48.830;8.730;2023-11-22T03:25:32;12.70;;;7.10;;
27847;SDS011;15212;48.830;8.730;2023-11-22T03:28:00;14.10;;;7.25;;
27847;SDS011;15212;48.830;8.730;2023-11-22T03:30:28;14.45;;;7.87;;
27847;SDS011;15212;48.830;8.730;2023-11-22T03:32:57;11.35;;;7.33;;
27847;SDS011;15212;48.830;8.730;2023-11-22T03:35:25;12.05;;;7.83;;
27847;SDS011;15212;48.830;8.730;2023-11-22T03:37:55;12.65;;;7.20;;
27847;SDS011;15212;48.830;8.730;2023-11-22T03:40:23;10.90;;;6.62;;
27847;SDS011;15212;48.830;8.730;2023-11-22T03:42:52;12.78;;;6.87;;
27847;SDS011;15212;48.830;8.730;2023-11-22T03:45:20;12.95;;;7.05;;
27847;SDS011;15212;48.830;8.730;2023-11-22T03:47:48;11.85;;;6.50;;
27847;SDS011;15212;48.830;8.730;2023-11-22T03:50:17;10.35;;;7.03;;
27847;SDS011;15212;48.830;8.730;2023-11-22T03:52:45;10.55;;;6.45;;
27847;SDS011;15212;48.830;8.730;2023-11-22T03:55:13;11.53;;;6.75;;
27847;SDS011;15212;48.830;8.730;2023-11-22T03:57:42;9.35;;;6.05;;
27847;SDS011;15212;48.830;8.730;2023-11-22T04:00:11;10.98;;;6.78;;
27847;SDS011;15212;48.830;8.730;2023-11-22T04:02:39;10.58;;;5.97;;
27847;SDS011;15212;48.830;8.730;2023-11-22T04:05:08;9.70;;;5.95;;
27847;SDS011;15212;48.830;8.730;2023-11-22T04:07:38;11.75;;;6.08;;
27847;SDS011;15212;48.830;8.730;2023-11-22T04:10:06;11.93;;;6.50;;
27847;SDS011;15212;48.830;8.730;2023-11-22T04:12:35;13.30;;;6.50;;
27847;SDS011;15212;48.830;8.730;2023-11-22T04:15:04;9.43;;;5.92;;
27847;SDS011;15212;48.830;8.730;2023-11-22T04:17:35;13.65;;;7.53;;
27847;SDS011;15212;48.830;8.730;2023-11-22T04:20:04;15.48;;;8.00;;
27847;SDS011;15212;48.830;8.730;2023-11-22T04:22:36;8.78;;;5.62;;
27847;SDS011;15212;48.830;8.730;2023-11-22T04:25:05;8.75;;;5.50;;
27847;SDS011;15212;48.830;8.730;2023-11-22T04:27:35;10.63;;;6.62;;
27847;SDS011;15212;48.830;8.730;2023-11-22T04:30:04;9.20;;;5.62;;
27847;SDS011;15212;48.830;8.730;2023-11-22T04:32:39;11.40;;;5.42;;
27847;SDS011;15212;48.830;8.730;2023-11-22T04:35:11;9.20;;;5.60;;
27847;SDS011;15212;48.830;8.730;2023-11-22T04:37:39;9.68;;;6.10;;
27847;SDS011;15212;48.830;8.730;2023-11-22T04:40:08;13.32;;;5.95;;
27847;SDS011;15212;48.830;8.730;2023-11-22T04:42:39;8.45;;;5.35;;
27847;SDS011;15212;48.830;8.730;2023-11-22T04:45:08;9.68;;;5.85;;
27847;SDS011;15212;48.830;8.730;2023-11-22T04:47:36;16.40;;;7.83;;
27847;SDS011;15212;48.830;8.730;2023-11-22T04:50:05;8.03;;;4.92;;
27847;SDS011;15212;48.830;8.730;2023-11-22T04:52:35;11.22;;;5.53;;
27847;SDS011;15212;48.830;8.730;2023-11-22T04:55:03;9.20;;;5.10;;
27847;SDS011;15212;48.830;8.730;2023-11-22T04:57:32;7.92;;;4.85;;
27847;SDS011;15212;48.830;8.730;2023-11-22T05:00:01;8.30;;;5.30;;
27847;SDS011;15212;48.830;8.730;2023-11-22T05:02:31;10.68;;;6.35;;
27847;SDS011;15212;48.830;8.730;2023-11-22T05:04:59;10.10;;;5.80;;
27847;SDS011;15212;48.830;8.730;2023-11-22T05:07:28;7.42;;;5.10;;
27847;SDS011;15212;48.830;8.730;2023-11-22T05:09:56;8.05;;;5.10;;
27847;SDS011;15212;48.830;8.730;2023-11-22T05:12:25;10.72;;;5.03;;
27847;SDS011;15212;48.830;8.730;2023-11-22T05:14:53;8.65;;;4.67;;
27847;SDS011;15212;48.830;8.730;2023-11-22T05:17:22;8.43;;;5.10;;
27847;SDS011;15212;48.830;8.730;2023-11-22T05:19:50;8.55;;;5.08;;
27847;SDS011;15212;48.830;8.730;2023-11-22T05:22:18;11.88;;;5.28;;
27847;SDS011;15212;48.830;8.730;2023-11-22T05:24:47;10.05;;;5.03;;
27847;SDS011;15212;48.830;8.730;2023-11-22T05:27:16;8.35;;;4.75;;
27847;SDS011;15212;48.830;8.730;2023-11-22T05:29:45;6.97;;;4.62;;
27847;SDS011;15212;48.830;8.730;2023-11-22T05:32:13;8.55;;;4.83;;
27847;SDS011;15212;48.830;8.730;2023-11-22T05:34:43;8.85;;;4.40;;
27847;SDS011;15212;48.830;8.730;2023-11-22T05:37:11;8.75;;;4.97;;
27847;SDS011;15212;48.830;8.730;2023-11-22T05:39:40;11.15;;;5.65;;
27847;SDS011;15212;48.830;8.730;2023-11-22T05:42:08;9.45;;;5.10;;
27847;SDS011;15212;48.830;8.730;2023-11-22T05:44:37;9.48;;;5.15;;
27847;SDS011;15212;48.830;8.730;2023-11-22T05:47:06;12.13;;;5.00;;
27847;SDS011;15212;48.830;8.730;2023-11-22T05:49:34;8.80;;;5.33;;
27847;SDS011;15212;48.830;8.730;2023-11-22T05:52:03;16.15;;;6.30;;
27847;SDS011;15212;48.830;8.730;2023-11-22T05:54:31;9.80;;;5.37;;
27847;SDS011;15212;48.830;8.730;2023-11-22T05:57:00;7.70;;;4.97;;
27847;SDS011;15212;48.830;8.730;2023-11-22T05:59:28;9.45;;;5.33;;
27847;SDS011;15212;48.830;8.730;2023-11-22T06:01:57;9.28;;;6.05;;
27847;SDS011;15212;48.830;8.730;2023-11-22T06:04:25;9.43;;;5.95;;
27847;SDS011;15212;48.830;8.730;2023-11-22T06:06:53;12.73;;;7.58;;
27847;SDS011;15212;48.830;8.730;2023-11-22T06:09:22;13.55;;;6.75;;
27847;SDS011;15212;48.830;8.730;2023-11-22T06:11:50;9.20;;;5.65;;
27847;SDS011;15212;48.830;8.730;2023-11-22T06:14:20;9.53;;;5.78;;
27847;SDS011;15212;48.830;8.730;2023-11-22T06:16:49;10.53;;;5.53;;
27847;SDS011;15212;48.830;8.730;2023-11-22T06:19:17;8.23;;;5.55;;
27847;SDS011;15212;48.830;8.730;2023-11-22T06:21:45;8.70;;;5.83;;
27847;SDS011;15212;48.830;8.730;2023-11-22T06:24:14;12.05;;;6.00;;
27847;SDS011;15212;48.830;8.730;2023-11-22T06:26:43;11.97;;;6.22;;
27847;SDS011;15212;48.830;8.730;2023-11-22T06:29:13;13.25;;;6.12;;
27847;SDS011;15212;48.830;8.730;2023-11-22T06:31:42;8.60;;;5.65;;
27847;SDS011;15212;48.830;8.730;2023-11-22T06:34:10;11.28;;;6.20;;
27847;SDS011;15212;48.830;8.730;2023-11-22T06:36:38;12.15;;;6.12;;
27847;SDS011;15212;48.830;8.730;2023-11-22T06:39:07;9.10;;;5.83;;
27847;SDS011;15212;48.830;8.730;2023-11-22T06:41:35;9.35;;;5.15;;
27847;SDS011;15212;48.830;8.730;2023-11-22T06:44:04;8.93;;;5.70;;
27847;SDS011;15212;48.830;8.730;2023-11-22T06:46:32;9.18;;;5.22;;
27847;SDS011;15212;48.830;8.730;2023-11-22T06:49:01;8.93;;;5.42;;
27847;SDS011;15212;48.830;8.730;2023-11-22T06:51:29;10.30;;;5.80;;
27847;SDS011;15212;48.830;8.730;2023-11-22T06:53:58;9.10;;;5.42;;
27847;SDS011;15212;48.830;8.730;2023-11-22T06:56:26;10.72;;;5.62;;
27847;SDS011;15212;48.830;8.730;2023-11-22T06:58:55;9.83;;;4.95;;
27847;SDS011;15212;48.830;8.730;2023-11-22T07:01:23;8.75;;;4.85;;
27847;SDS011;15212;48.830;8.730;2023-11-22T07:03:52;8.75;;;5.15;;
27847;SDS011;15212;48.830;8.730;2023-11-22T07:06:20;8.38;;;4.40;;
27847;SDS011;15212;48.830;8.730;2023-11-22T07:08:48;8.33;;;4.67;;
27847;SDS011;15212;48.830;8.730;2023-11-22T07:11:23;15.38;;;5.30;;
27847;SDS011;15212;48.830;8.730;2023-11-22T07:13:52;9.95;;;4.85;;
27847;SDS011;15212;48.830;8.730;2023-11-22T07:16:21;8.38;;;4.70;;
27847;SDS011;15212;48.830;8.730;2023-11-22T07:18:50;9.30;;;5.30;;
27847;SDS011;15212;48.830;8.730;2023-11-22T07:21:19;10.25;;;5.70;;
27847;SDS011;15212;48.830;8.730;2023-11-22T07:23:47;8.48;;;5.30;;
27847;SDS011;15212;48.830;8.730;2023-11-22T07:26:16;8.80;;;4.90;;
27847;SDS011;15212;48.830;8.730;2023-11-22T07:28:45;11.40;;;5.05;;
27847;SDS011;15212;48.830;8.730;2023-11-22T07:31:13;8.80;;;5.20;;
27847;SDS011;15212;48.830;8.730;2023-11-22T07:33:42;8.63;;;4.72;;
27847;SDS011;15212;48.830;8.730;2023-11-22T07:36:11;10.03;;;5.17;;
27847;SDS011;15212;48.830;8.730;2023-11-22T07:38:41;11.60;;;5.08;;
27847;SDS011;15212;48.830;8.730;2023-11-22T07:41:10;8.05;;;4.50;;
27847;SDS011;15212;48.830;8.730;2023-11-22T07:43:38;10.40;;;4.53;;
27847;SDS011;15212;48.830;8.730;2023-11-22T07:46:07;10.38;;;6.40;;
27847;SDS011;15212;48.830;8.730;2023-11-22T07:48:38;8.38;;;4.53;;
27847;SDS011;15212;48.830;8.730;2023-11-22T07:51:07;8.68;;;4.50;;
27847;SDS011;15212;48.830;8.730;2023-11-22T07:53:35;8.73;;;4.28;;
27847;SDS011;15212;48.830;8.730;2023-11-22T07:56:05;11.15;;;5.00;;
27847;SDS011;15212;48.830;8.730;2023-11-22T07:58:35;9.05;;;5.03;;
27847;SDS011;15212;48.830;8.730;2023-11-22T08:01:03;10.40;;;5.75;;
27847;SDS011;15212;48.830;8.730;2023-11-22T08:03:33;10.00;;;5.72;;
27847;SDS011;15212;48.830;8.730;2023-11-22T08:06:02;10.30;;;5.08;;
27847;SDS011;15212;48.830;8.730;2023-11-22T08:08:31;10.48;;;5.25;;
27847;SDS011;15212;48.830;8.730;2023-11-22T08:11:01;10.82;;;5.20;;
27847;SDS011;15212;48.830;8.730;2023-11-22T08:13:30;9.08;;;4.80;;
27847;SDS011;15212;48.830;8.730;2023-11-22T08:15:58;7.22;;;4.55;;
27847;SDS011;15212;48.830;8.730;2023-11-22T08:18:27;6.45;;;3.90;;
27847;SDS011;15212;48.830;8.730;2023-11-22T08:20:55;6.53;;;3.80;;
27847;SDS011;15212;48.830;8.730;2023-11-22T08:23:24;8.80;;;4.10;;
27847;SDS011;15212;48.830;8.730;2023-11-22T08:25:58;6.47;;;3.67;;
27847;SDS011;15212;48.830;8.730;2023-11-22T08:28:29;5.70;;;3.70;;
27847;SDS011;15212;48.830;8.730;2023-11-22T08:30:57;6.00;;;3.70;;
27847;SDS011;15212;48.830;8.730;2023-11-22T08:33:26;7.25;;;3.92;;
27847;SDS011;15212;48.830;8.730;2023-11-22T08:35:55;9.10;;;3.35;;
27847;SDS011;15212;48.830;8.730;2023-11-22T08:38:25;7.80;;;3.85;;
27847;SDS011;15212;48.830;8.730;2023-11-22T08:40:53;9.15;;;4.40;;
27847;SDS011;15212;48.830;8.730;2023-11-22T08:43:22;11.43;;;4.25;;
27847;SDS011;15212;48.830;8.730;2023-11-22T08:45:51;9.28;;;4.53;;
27847;SDS011;15212;48.830;8.730;2023-11-22T08:48:20;9.95;;;5.05;;
27847;SDS011;15212;48.830;8.730;2023-11-22T08:50:48;14.05;;;6.50;;
27847;SDS011;15212;48.830;8.730;2023-11-22T08:53:18;8.40;;;4.08;;
27847;SDS011;15212;48.830;8.730;2023-11-22T08:55:47;6.67;;;4.37;;
27847;SDS011;15212;48.830;8.730;2023-11-22T08:58:15;8.08;;;4.10;;
27847;SDS011;15212;48.830;8.730;2023-11-22T09:00:44;6.12;;;3.85;;
27847;SDS011;15212;48.830;8.730;2023-11-22T09:03:12;7.67;;;3.87;;
27847;SDS011;15212;48.830;8.730;2023-11-22T09:05:43;17.40;;;7.60;;
27847;SDS011;15212;48.830;8.730;2023-11-22T09:08:12;8.70;;;5.08;;
27847;SDS011;15212;48.830;8.730;2023-11-22T09:10:41;9.48;;;4.75;;
27847;SDS011;15212;48.830;8.730;2023-11-22T09:13:10;8.30;;;4.20;;
27847;SDS011;15212;48.830;8.730;2023-11-22T09:15:40;7.72;;;4.65;;
27847;SDS011;15212;48.830;8.730;2023-11-22T09:18:10;9.98;;;5.20;;
27847;SDS011;15212;48.830;8.730;2023-11-22T09:20:39;7.75;;;5.03;;
27847;SDS011;15212;48.830;8.730;2023-11-22T09:23:12;7.17;;;4.00;;
27847;SDS011;15212;48.830;8.730;2023-11-22T09:25:40;9.35;;;4.83;;
27847;SDS011;15212;48.830;8.730;2023-11-22T09:28:09;6.60;;;4.28;;
27847;SDS011;15212;48.830;8.730;2023-11-22T09:30:38;6.50;;;4.33;;
27847;SDS011;15212;48.830;8.730;2023-11-22T09:33:09;8.00;;;4.47;;
27847;SDS011;15212;48.830;8.730;2023-11-22T09:35:41;8.13;;;4.45;;
27847;SDS011;15212;48.830;8.730;2023-11-22T09:38:11;9.03;;;4.87;;
27847;SDS011;15212;48.830;8.730;2023-11-22T09:40:42;7.47;;;4.50;;
27847;SDS011;15212;48.830;8.730;2023-11-22T09:43:12;9.73;;;4.87;;
27847;SDS011;15212;48.830;8.730;2023-11-22T09:45:44;12.53;;;4.80;;
27847;SDS011;15212;48.830;8.730;2023-11-22T09:48:16;8.40;;;4.72;;
27847;SDS011;15212;48.830;8.730;2023-11-22T09:53:56;11.75;;;5.10;;
27847;SDS011;15212;48.830;8.730;2023-11-22T09:56:27;8.48;;;4.47;;
27847;SDS011;15212;48.830;8.730;2023-11-22T09:58:59;11.57;;;4.70;;
27847;SDS011;15212;48.830;8.730;2023-11-22T10:01:30;7.87;;;4.83;;
27847;SDS011;15212;48.830;8.730;2023-11-22T10:04:02;6.87;;;4.62;;
27847;SDS011;15212;48.830;8.730;2023-11-22T10:06:31;9.53;;;4.65;;
27847;SDS011;15212;48.830;8.730;2023-11-22T10:09:02;11.10;;;5.47;;
27847;SDS011;15212;48.830;8.730;2023-11-22T10:11:37;8.40;;;5.03;;
27847;SDS011;15212;48.830;8.730;2023-11-22T10:14:07;11.50;;;5.40;;
27847;SDS011;15212;48.830;8.730;2023-11-22T10:16:37;9.30;;;4.97;;
27847;SDS011;15212;48.830;8.730;2023-11-22T10:19:05;9.50;;;4.80;;
27847;SDS011;15212;48.830;8.730;2023-11-22T10:21:35;10.98;;;5.87;;
27847;SDS011;15212;48.830;8.730;2023-11-22T10:24:05;9.85;;;5.42;;
27847;SDS011;15212;48.830;8.730;2023-11-22T10:26:35;9.13;;;5.00;;
27847;SDS011;15212;48.830;8.730;2023-11-22T10:29:04;9.78;;;4.72;;
27847;SDS011;15212;48.830;8.730;2023-11-22T10:31:34;9.83;;;5.15;;
27847;SDS011;15212;48.830;8.730;2023-11-22T10:34:02;9.53;;;4.83;;
27847;SDS011;15212;48.830;8.730;2023-11-22T10:36:31;10.65;;;4.83;;
27847;SDS011;15212;48.830;8.730;2023-11-22T10:38:59;8.98;;;5.25;;
27847;SDS011;15212;48.830;8.730;2023-11-22T10:41:28;9.43;;;5.20;;
27847;SDS011;15212;48.830;8.730;2023-11-22T10:43:58;14.15;;;5.12;;
27847;SDS011;15212;48.830;8.730;2023-11-22T10:46:27;11.93;;;5.70;;
27847;SDS011;15212;48.830;8.730;2023-11-22T10:48:56;11.43;;;5.62;;
27847;SDS011;15212;48.830;8.730;2023-11-22T10:51:26;13.08;;;5.62;;
27847;SDS011;15212;48.830;8.730;2023-11-22T10:54:02;8.28;;;5.67;;
27847;SDS011;15212;48.830;8.730;2023-11-22T10:56:36;10.88;;;5.60;;
27847;SDS011;15212;48.830;8.730;2023-11-22T10:59:11;8.88;;;5.47;;
27847;SDS011;15212;48.830;8.730;2023-11-22T11:01:47;11.73;;;5.62;;
27847;SDS011;15212;48.830;8.730;2023-11-22T11:04:19;11.30;;;5.75;;
27847;SDS011;15212;48.830;8.730;2023-11-22T11:07:03;8.40;;;5.05;;
27847;SDS011;15212;48.830;8.730;2023-11-22T11:09:33;11.43;;;6.25;;
27847;SDS011;15212;48.830;8.730;2023-11-22T11:12:05;11.05;;;6.30;;
27847;SDS011;15212;48.830;8.730;2023-11-22T11:14:35;12.50;;;6.22;;
27847;SDS011;15212;48.830;8.730;2023-11-22T11:17:05;13.18;;;6.08;;
27847;SDS011;15212;48.830;8.730;2023-11-22T11:19:34;10.32;;;5.28;;
27847;SDS011;15212;48.830;8.730;2023-11-22T11:22:02;9.23;;;4.95;;
27847;SDS011;15212;48.830;8.730;2023-11-22T11:24:37;12.82;;;6.20;;
27847;SDS011;15212;48.830;8.730;2023-11-22T11:27:10;15.10;;;6.15;;
27847;SDS011;15212;48.830;8.730;2023-11-22T11:29:39;12.82;;;6.95;;
27847;SDS011;15212;48.830;8.730;2023-11-22T11:32:11;13.30;;;6.35;;
27847;SDS011;15212;48.830;8.730;2023-11-22T11:34:58;10.72;;;6.17;;
27847;SDS011;15212;48.830;8.730;2023-11-22T11:37:29;12.55;;;6.10;;
27847;SDS011;15212;48.830;8.730;2023-11-22T11:39:58;10.60;;;6.12;;
27847;SDS011;15212;48.830;8.730;2023-11-22T11:42:26;10.75;;;6.33;;
27847;SDS011;15212;48.830;8.730;2023-11-22T11:45:04;10.90;;;6.28;;
27847;SDS011;15212;48.830;8.730;2023-11-22T11:47:35;13.30;;;6.87;;
27847;SDS011;15212;48.830;8.730;2023-11-22T11:50:04;14.05;;;7.03;;
27847;SDS011;15212;48.830;8.730;2023-11-22T11:52:33;12.47;;;6.33;;
27847;SDS011;15212;48.830;8.730;2023-11-22T11:55:03;14.38;;;7.12;;
27847;SDS011;15212;48.830;8.730;2023-11-22T11:57:32;13.35;;;6.12;;
27847;SDS011;15212;48.830;8.730;2023-11-22T12:00:02;11.40;;;6.20;;
27847;SDS011;15212;48.830;8.730;2023-11-22T12:02:32;14.20;;;6.55;;
27847;SDS011;15212;48.830;8.730;2023-11-22T12:05:00;17.35;;;6.80;;
27847;SDS011;15212;48.830;8.730;2023-11-22T12:07:31;11.63;;;6.62;;
27847;SDS011;15212;48.830;8.730;2023-11-22T12:09:59;10.10;;;5.65;;
27847;SDS011;15212;48.830;8.730;2023-11-22T12:12:28;13.80;;;6.60;;
27847;SDS011;15212;48.830;8.730;2023-11-22T12:14:57;11.20;;;6.28;;
27847;SDS011;15212;48.830;8.730;2023-11-22T12:17:26;12.33;;;6.78;;
27847;SDS011;15212;48.830;8.730;2023-11-22T12:20:08;13.20;;;6.50;;
27847;SDS011;15212;48.830;8.730;2023-11-22T12:22:40;22.17;;;8.58;;
27847;SDS011;15212;48.830;8.730;2023-11-22T12:25:09;21.80;;;9.60;;
27847;SDS011;15212;48.830;8.730;2023-11-22T12:27:39;15.98;;;8.00;;
27847;SDS011;15212;48.830;8.730;2023-11-22T12:30:30;67.53;;;24.02;;
27847;SDS011;15212;48.830;8.730;2023-11-22T12:33:04;97.12;;;34.40;;
27847;SDS011;15212;48.830;8.730;2023-11-22T12:35:34;31.65;;;15.10;;
27847;SDS011;15212;48.830;8.730;2023-11-22T12:38:04;17.27;;;8.75;;
27847;SDS011;15212;48.830;8.730;2023-11-22T12:40:33;17.40;;;9.63;;
27847;SDS011;15212;48.830;8.730;2023-11-22T12:43:02;17.40;;;9.13;;
27847;SDS011;15212;48.830;8.730;2023-11-22T12:45:32;12.98;;;6.33;;
27847;SDS011;15212;48.830;8.730;2023-11-22T12:48:03;17.98;;;6.92;;
27847;SDS011;15212;48.830;8.730;2023-11-22T12:50:52;13.53;;;7.50;;
27847;SDS011;15212;48.830;8.730;2023-11-22T12:53:20;14.53;;;7.28;;
27847;SDS011;15212;48.830;8.730;2023-11-22T12:55:52;14.20;;;7.67;;
27847;SDS011;15212;48.830;8.730;2023-11-22T12:58:22;14.75;;;7.40;;
27847;SDS011;15212;48.830;8.730;2023-11-22T13:00:53;12.55;;;6.87;;
27847;SDS011;15212;48.830;8.730;2023-11-22T13:03:26;15.28;;;6.62;;
27847;SDS011;15212;48.830;8.730;2023-11-22T13:05:55;15.65;;;7.37;;
27847;SDS011;15212;48.830;8.730;2023-11-22T13:08:24;11.90;;;7.25;;
27847;SDS011;15212;48.830;8.730;2023-11-22T13:10:54;15.38;;;7.37;;
27847;SDS011;15212;48.830;8.730;2023-11-22T13:13:23;14.60;;;6.83;;
27847;SDS011;15212;48.830;8.730;2023-11-22T13:15:53;17.92;;;8.20;;
27847;SDS011;15212;48.830;8.730;2023-11-22T13:18:23;17.48;;;8.08;;
27847;SDS011;15212;48.830;8.730;2023-11-22T13:20:52;17.10;;;7.85;;
27847;SDS011;15212;48.830;8.730;2023-11-22T13:23:20;15.08;;;7.67;;
27847;SDS011;15212;48.830;8.730;2023-11-22T13:25:48;13.55;;;7.15;;
27847;SDS011;15212;48.830;8.730;2023-11-22T13:28:17;13.43;;;7.37;;
27847;SDS011;15212;48.830;8.730;2023-11-22T13:30:45;14.90;;;7.50;;
27847;SDS011;15212;48.830;8.730;2023-11-22T13:33:14;12.78;;;7.85;;
27847;SDS011;15212;48.830;8.730;2023-11-22T13:35:44;15.13;;;7.45;;
27847;SDS011;15212;48.830;8.730;2023-11-22T13:38:13;14.15;;;7.35;;
27847;SDS011;15212;48.830;8.730;2023-11-22T13:40:42;14.83;;;8.25;;
27847;SDS011;15212;48.830;8.730;2023-11-22T13:43:11;14.83;;;7.12;;
27847;SDS011;15212;48.830;8.730;2023-11-22T13:45:40;14.98;;;7.85;;
27847;SDS011;15212;48.830;8.730;2023-11-22T13:48:08;15.32;;;8.65;;
27847;SDS011;15212;48.830;8.730;2023-11-22T13:50:37;16.45;;;7.95;;
27847;SDS011;15212;48.830;8.730;2023-11-22T13:53:05;16.23;;;8.00;;
27847;SDS011;15212;48.830;8.730;2023-11-22T13:55:35;16.65;;;8.65;;
27847;SDS011;15212;48.830;8.730;2023-11-22T13:58:04;17.75;;;8.28;;
27847;SDS011;15212;48.830;8.730;2023-11-22T14:00:34;17.82;;;9.98;;
27847;SDS011;15212;48.830;8.730;2023-11-22T14:03:04;25.10;;;11.85;;
27847;SDS011;15212;48.830;8.730;2023-11-22T14:05:34;16.95;;;8.05;;
27847;SDS011;15212;48.830;8.730;2023-11-22T14:08:04;14.43;;;7.62;;
27847;SDS011;15212;48.830;8.730;2023-11-22T14:10:33;14.23;;;7.70;;
27847;SDS011;15212;48.830;8.730;2023-11-22T14:13:01;14.15;;;7.78;;
27847;SDS011;15212;48.830;8.730;2023-11-22T14:15:30;16.67;;;7.70;;
27847;SDS011;15212;48.830;8.730;2023-11-22T14:17:59;14.63;;;7.95;;
27847;SDS011;15212;48.830;8.730;2023-11-22T14:20:27;13.48;;;8.08;;
27847;SDS011;15212;48.830;8.730;2023-11-22T14:22:56;16.17;;;8.68;;
27847;SDS011;15212;48.830;8.730;2023-11-22T14:25:24;14.13;;;7.55;;
27847;SDS011;15212;48.830;8.730;2023-11-22T14:27:54;17.75;;;8.25;;
27847;SDS011;15212;48.830;8.730;2023-11-22T14:30:23;20.80;;;8.63;;
27847;SDS011;15212;48.830;8.730;2023-11-22T14:32:53;19.42;;;8.55;;
27847;SDS011;15212;48.830;8.730;2023-11-22T14:35:23;13.98;;;8.20;;
27847;SDS011;15212;48.830;8.730;2023-11-22T14:37:52;14.30;;;7.50;;
27847;SDS011;15212;48.830;8.730;2023-11-22T14:40:21;13.70;;;7.60;;
27847;SDS011;15212;48.830;8.730;2023-11-22T14:42:50;11.90;;;7.05;;
27847;SDS011;15212;48.830;8.730;2023-11-22T14:45:18;16.57;;;7.83;;
27847;SDS011;15212;48.830;8.730;2023-11-22T14:47:47;12.85;;;7.58;;
27847;SDS011;15212;48.830;8.730;2023-11-22T14:50:17;186.55;;;68.15;;
27847;SDS011;15212;48.830;8.730;2023-11-22T14:52:47;108.00;;;40.63;;
27847;SDS011;15212;48.830;8.730;2023-11-22T14:55:15;46.85;;;19.82;;